Maersk Belfast — 9V6969 — position and weather

sailwx.info

Track history (hours):
 
Tides and Currents Weather Stations Pressure Air Temp Water Temp Dewpoint Dewpoint Depression Visibility Wind Speed Wind Dir Waves Ship Positions

Maersk Belfast

Last reported at 2018-Feb-10 11:46 UTC. Time now 2018-Feb-24 21:48 UTC.
Position N 32°44' E 030°54'.
Warning: this ship's position is 14 days out of date.

Length 175 m; draft 9.5 m.

Type: Tanker. MMSI: 566503000.

Date/timePositionNaut miles runAvg speedWind from/ knotsBaromVisibWave heightAir tempDewpointWater temp
2018-Feb-10 11:46N 32°44' E 030°54'513.8
2018-Feb-10 11:23N 32°48' E 030°49'3314.5
2018-Feb-10 09:08N 33°12' E 030°23'36314.4
2018-Feb-09 08:00N 37°51' E 025°39'239 7.5
2018-Feb-08 00:05N 40°57' E 028°52'1 3.4
2018-Feb-07 23:48N 40°56' E 028°53'2 6.6
2018-Feb-07 23:30N 40°57' E 028°55'5 7.9
2018-Feb-07 22:53N 41°01' E 028°60'  
2018-Feb-05 17:14N 46°16' E 030°54'313.6
2018-Feb-05 17:00N 46°19' E 030°55'713.6
2018-Feb-05 16:30N 46°26' E 030°55'612.1
2018-Feb-05 16:00N 46°32' E 030°56'3110.4
2018-Feb-05 13:01N 46°36' E 031°41'1 9.9
2018-Feb-05 12:58N 46°36' E 031°42'25 6.2
2018-Feb-05 08:59N 46°56' E 032°01'0 0.0
2018-Feb-05 08:29N 46°56' E 032°01'0 0.0
2018-Feb-05 07:59N 46°56' E 032°01'0 0.0
2018-Feb-05 07:29N 46°56' E 032°01'0 0.0
2018-Feb-05 06:59N 46°56' E 032°01'0 0.0
2018-Feb-05 06:29N 46°56' E 032°01'0 0.0
2018-Feb-05 05:29N 46°56' E 032°01'0 0.0
2018-Feb-05 04:59N 46°56' E 032°01'0 0.0
2018-Feb-05 04:29N 46°56' E 032°01'0 0.0
2018-Feb-05 03:59N 46°56' E 032°01'0 0.0
2018-Feb-05 03:29N 46°56' E 032°01'0 0.0
2018-Feb-05 02:59N 46°56' E 032°01'0 0.0
2018-Feb-05 02:29N 46°56' E 032°01'0 0.0
2018-Feb-05 01:59N 46°56' E 032°01'0 0.0
2018-Feb-05 01:29N 46°56' E 032°01'0 0.0
2018-Feb-05 00:59N 46°56' E 032°01'0 0.0
2018-Feb-05 00:29N 46°56' E 032°01'0 0.0
2018-Feb-04 23:59N 46°56' E 032°01'0 0.0
2018-Feb-04 23:29N 46°56' E 032°01'0 0.0
2018-Feb-04 22:59N 46°56' E 032°01'0 0.0
2018-Feb-04 22:29N 46°56' E 032°01'0 0.0
2018-Feb-04 21:59N 46°56' E 032°01'0 0.0
2018-Feb-04 21:29N 46°56' E 032°01'0 0.0
2018-Feb-04 20:59N 46°56' E 032°01'0 0.0
2018-Feb-04 19:56N 46°56' E 032°01'0 0.0
2018-Feb-04 19:29N 46°56' E 032°01'0 0.0
2018-Feb-04 18:59N 46°56' E 032°01'0 0.0
2018-Feb-04 18:29N 46°56' E 032°01'0 0.0
2018-Feb-04 17:59N 46°56' E 032°01'0 0.0
2018-Feb-04 17:29N 46°56' E 032°01'0 0.0
2018-Feb-04 15:29N 46°56' E 032°01'0 0.0
2018-Feb-04 14:59N 46°56' E 032°01'0 0.0
2018-Feb-04 14:29N 46°56' E 032°01'0 0.0
2018-Feb-04 13:59N 46°56' E 032°01'0 0.0
2018-Feb-04 13:29N 46°56' E 032°01'0 0.0
2018-Feb-04 12:59N 46°56' E 032°01'0 0.0
2018-Feb-04 12:29N 46°56' E 032°01'0 0.0
2018-Feb-04 11:59N 46°56' E 032°01'0 0.0
2018-Feb-04 11:29N 46°56' E 032°01'0 0.0
2018-Feb-04 09:59N 46°56' E 032°01'0 0.0
2018-Feb-04 08:59N 46°56' E 032°01'0 0.0
2018-Feb-04 08:29N 46°56' E 032°01'0 0.0
2018-Feb-04 07:59N 46°56' E 032°01'0 0.0
2018-Feb-04 07:29N 46°56' E 032°01'0 0.0
2018-Feb-04 06:59N 46°56' E 032°01'0 0.0
2018-Feb-04 06:29N 46°56' E 032°01'0 0.0
2018-Feb-04 05:59N 46°56' E 032°01'0 0.0
2018-Feb-04 05:29N 46°56' E 032°01'0 0.0
2018-Feb-04 04:59N 46°56' E 032°01'0 0.0
2018-Feb-04 04:29N 46°56' E 032°01'0 0.0
2018-Feb-04 03:59N 46°56' E 032°01'0 0.0
2018-Feb-04 03:29N 46°56' E 032°01'0 0.0
2018-Feb-04 02:59N 46°56' E 032°01'0 0.0
2018-Feb-04 02:29N 46°56' E 032°01'0 0.0
2018-Feb-04 01:59N 46°56' E 032°01'0 0.0
2018-Feb-04 01:29N 46°56' E 032°01'0 0.0
2018-Feb-04 00:59N 46°56' E 032°01'0 0.0
2018-Feb-04 00:29N 46°56' E 032°01'0 0.0
2018-Feb-03 23:59N 46°56' E 032°01'0 0.0
2018-Feb-03 23:26N 46°56' E 032°01'0 0.0
2018-Feb-03 22:59N 46°56' E 032°01'0 0.0
2018-Feb-03 22:26N 46°56' E 032°01'0 0.0
2018-Feb-03 21:59N 46°56' E 032°01'0 0.0
2018-Feb-03 21:26N 46°56' E 032°01'0 0.0
2018-Feb-03 20:56N 46°56' E 032°01'0 0.0
2018-Feb-03 20:29N 46°56' E 032°01'0 0.0
2018-Feb-03 19:56N 46°56' E 032°01'1 0.7
2018-Feb-03 18:29N 46°57' E 031°60'0 0.0
2018-Feb-03 17:59N 46°57' E 031°60'0 0.0
2018-Feb-03 17:29N 46°57' E 031°60'0 0.0
2018-Feb-03 16:59N 46°57' E 031°60'0 0.0
2018-Feb-03 15:59N 46°57' E 031°60'0 0.0
2018-Feb-03 15:29N 46°57' E 031°60'0 0.0
2018-Feb-03 14:59N 46°57' E 031°60'0 0.0
2018-Feb-03 14:29N 46°57' E 031°60'0 0.0
2018-Feb-03 13:59N 46°57' E 031°60'0 0.0
2018-Feb-03 13:28N 46°57' E 031°60'0 0.0
2018-Feb-03 12:58N 46°57' E 031°60'0 0.0
2018-Feb-03 12:25N 46°57' E 031°60'0 0.0
2018-Feb-03 11:58N 46°57' E 031°60'0 0.0
2018-Feb-03 11:28N 46°57' E 031°60'0 0.0
2018-Feb-03 10:58N 46°57' E 031°60'0 0.0
2018-Feb-03 10:28N 46°57' E 031°60'0 0.0
2018-Feb-03 10:01N 46°57' E 031°60'0 0.0
2018-Feb-03 09:31N 46°57' E 031°60'0 0.0
2018-Feb-03 09:01N 46°57' E 031°60'0 0.0
2018-Feb-03 08:31N 46°57' E 031°60'0 0.0
2018-Feb-03 07:58N 46°57' E 031°60'0 0.0
2018-Feb-03 06:31N 46°57' E 031°60'0 0.0
2018-Feb-03 06:01N 46°57' E 031°60'0 0.0
2018-Feb-03 05:31N 46°57' E 031°60'0 0.0
2018-Feb-03 05:01N 46°57' E 031°60'0 0.0
2018-Feb-03 04:01N 46°57' E 031°60'0 0.0
2018-Feb-03 03:28N 46°57' E 031°60'0 0.0
2018-Feb-03 02:01N 46°57' E 031°60'0 0.0
2018-Feb-03 01:31N 46°57' E 031°60'0 0.0
2018-Feb-03 01:01N 46°57' E 031°60'0 0.0
2018-Feb-03 00:28N 46°57' E 031°60'0 0.0
2018-Feb-02 23:58N 46°57' E 031°60'0 0.0
2018-Feb-02 23:28N 46°57' E 031°60'0 0.0
2018-Feb-02 23:01N 46°57' E 031°60'0 0.0
2018-Feb-02 22:31N 46°57' E 031°60'0 0.0
2018-Feb-02 22:01N 46°57' E 031°60'0 0.0
2018-Feb-02 21:31N 46°57' E 031°60'0 0.0
2018-Feb-02 20:58N 46°57' E 031°60'0 0.0
2018-Feb-02 20:31N 46°57' E 031°60'0 0.0
2018-Feb-02 20:01N 46°57' E 031°60'0 0.0
2018-Feb-02 19:01N 46°57' E 031°60'0 0.0
2018-Feb-02 18:28N 46°57' E 031°60'0 0.0
2018-Feb-02 18:01N 46°57' E 031°60'0 0.0
2018-Feb-02 17:31N 46°57' E 031°60'0 0.0
2018-Feb-02 17:01N 46°57' E 031°60'0 0.0
2018-Feb-02 16:31N 46°57' E 031°60'0 0.0
2018-Feb-02 15:31N 46°57' E 031°60'0 0.0
2018-Feb-02 14:31N 46°57' E 031°60'0 0.0
2018-Feb-02 14:01N 46°57' E 031°60'0 0.0
2018-Feb-02 13:31N 46°57' E 031°60'0 0.0
2018-Feb-02 13:01N 46°57' E 031°60'0 0.0
2018-Feb-02 12:31N 46°57' E 031°60'0 0.0
2018-Feb-02 12:01N 46°57' E 031°60'0 0.0
2018-Feb-02 11:31N 46°57' E 031°60'0 0.0
2018-Feb-02 11:01N 46°57' E 031°60'0 0.0
2018-Feb-02 10:28N 46°57' E 031°60'0 0.0
2018-Feb-02 09:59N 46°57' E 031°60'0 0.0
2018-Feb-02 09:29N 46°57' E 031°60'0 0.0
2018-Feb-02 08:59N 46°57' E 031°60'0 0.0
2018-Feb-02 08:29N 46°57' E 031°60'0 0.0
2018-Feb-02 07:59N 46°57' E 031°60'0 0.0
2018-Feb-02 07:29N 46°57' E 031°60'0 0.0
2018-Feb-02 06:59N 46°57' E 031°60'0 0.0
2018-Feb-02 06:29N 46°57' E 031°60'0 0.0
2018-Feb-02 05:59N 46°57' E 031°60'0 0.0
2018-Feb-02 05:29N 46°57' E 031°60'0 0.0
2018-Feb-02 04:59N 46°57' E 031°60'0 0.0
2018-Feb-02 04:29N 46°57' E 031°60'0 0.0
2018-Feb-02 03:59N 46°57' E 031°60'0 0.0
2018-Feb-02 03:29N 46°57' E 031°60'0 0.0
2018-Feb-02 02:59N 46°57' E 031°60'0 0.0
2018-Feb-02 02:29N 46°57' E 031°60'0 0.0
2018-Feb-02 01:59N 46°57' E 031°60'0 0.0
2018-Feb-02 01:29N 46°57' E 031°60'0 0.0
2018-Feb-02 00:59N 46°57' E 031°60'0 0.0
2018-Feb-02 00:29N 46°57' E 031°60'0 0.0
2018-Feb-01 23:59N 46°57' E 031°60'0 0.0
2018-Feb-01 23:26N 46°57' E 031°60'0 0.0
2018-Feb-01 22:59N 46°57' E 031°60'0 0.0
2018-Feb-01 21:59N 46°57' E 031°60'0 0.0
2018-Feb-01 21:29N 46°57' E 031°60'0 0.0
2018-Feb-01 19:29N 46°57' E 031°60'0 0.0
2018-Feb-01 18:59N 46°57' E 031°60'0 0.0
2018-Feb-01 18:29N 46°57' E 031°60'0 0.0
2018-Feb-01 17:59N 46°57' E 031°60'0 0.0
2018-Feb-01 17:29N 46°57' E 031°60'0 0.0
2018-Feb-01 16:59N 46°57' E 031°60'0 0.0
2018-Feb-01 16:29N 46°57' E 031°60'0 0.0
2018-Feb-01 15:59N 46°57' E 031°60'0 0.0
2018-Feb-01 15:29N 46°57' E 031°60'0 0.0
2018-Feb-01 14:59N 46°57' E 031°60'0 0.0
2018-Feb-01 13:29N 46°57' E 031°60'0 0.0
2018-Feb-01 12:59N 46°57' E 031°60'0 0.0
2018-Feb-01 12:29N 46°57' E 031°60'0 0.0
2018-Feb-01 11:59N 46°57' E 031°60'0 0.0
2018-Feb-01 10:59N 46°57' E 031°60'0 0.0
2018-Feb-01 10:29N 46°57' E 031°60'0 0.0
2018-Feb-01 09:59N 46°57' E 031°60'0 0.0
2018-Feb-01 09:29N 46°57' E 031°60'0 0.0
2018-Feb-01 08:59N 46°57' E 031°60'0 0.0
2018-Feb-01 08:26N 46°57' E 031°60'0 0.0
2018-Feb-01 07:29N 46°57' E 031°60'0 0.0
2018-Feb-01 06:59N 46°57' E 031°60'0 0.0
2018-Feb-01 06:29N 46°57' E 031°60'0 0.0
2018-Feb-01 05:59N 46°57' E 031°60'0 0.0
2018-Feb-01 05:29N 46°57' E 031°60'0 0.0
2018-Feb-01 04:59N 46°57' E 031°60'0 0.0
2018-Feb-01 04:29N 46°57' E 031°60'0 0.4
2018-Feb-01 04:01N 46°57' E 032°00'1 0.6
2018-Feb-01 02:59N 46°56' E 032°01'0 0.0
2018-Feb-01 02:29N 46°56' E 032°01'0 0.0
2018-Feb-01 01:59N 46°56' E 032°01'0 0.0
2018-Feb-01 01:29N 46°56' E 032°01'0 0.0
2018-Feb-01 00:59N 46°56' E 032°01'0 0.1
2018-Feb-01 00:29N 46°56' E 032°01'0 0.1
2018-Jan-31 23:59N 46°56' E 032°01'0 0.1
2018-Jan-31 22:59N 46°56' E 032°01'0 0.1
2018-Jan-31 22:29N 46°56' E 032°01'7 4.9
2018-Jan-31 21:01N 46°50' E 031°56'510.9
2018-Jan-31 20:31N 46°45' E 031°54'611.2
2018-Jan-31 20:01N 46°39' E 031°56'612.3
2018-Jan-31 19:30N 46°36' E 031°48'612.7
2018-Jan-31 19:00N 46°36' E 031°39'611.4
2018-Jan-31 18:30N 46°35' E 031°31'612.0
2018-Jan-31 18:00N 46°35' E 031°22'715.3
2018-Jan-31 17:30N 46°35' E 031°11'510.2
2018-Jan-31 17:00N 46°34' E 031°04'3 5.3
2018-Jan-31 16:31N 46°35' E 031°07'713.1
2018-Jan-31 16:01N 46°33' E 030°58'714.7
2018-Jan-31 15:30N 46°25' E 030°57'815.1
2018-Jan-31 15:01N 46°18' E 030°57'714.6
2018-Jan-31 14:30N 46°12' E 031°04'  
Track history (hours):
 
Tides and Currents Weather Stations Pressure Air Temp Water Temp Dewpoint Dewpoint Depression Visibility Wind Speed Wind Dir Waves Ship Positions

Maersk Belfast

Last reported at 2018-Feb-10 11:46 UTC. Time now 2018-Feb-24 21:48 UTC.
Position N 32°44' E 030°54'.
Warning: this ship's position is 14 days out of date.

Length 175 m; draft 9.5 m.

Type: Tanker. MMSI: 566503000.

Date/timePositionNaut miles runAvg speedWind from/ knotsBaromVisibWave heightAir tempDewpointWater temp
2018-Feb-10 11:46N 32°44' E 030°54'513.8
2018-Feb-10 11:23N 32°48' E 030°49'3314.5
2018-Feb-10 09:08N 33°12' E 030°23'36314.4
2018-Feb-09 08:00N 37°51' E 025°39'239 7.5
2018-Feb-08 00:05N 40°57' E 028°52'1 3.4
2018-Feb-07 23:48N 40°56' E 028°53'2 6.6
2018-Feb-07 23:30N 40°57' E 028°55'5 7.9
2018-Feb-07 22:53N 41°01' E 028°60'  
2018-Feb-05 17:14N 46°16' E 030°54'313.6
2018-Feb-05 17:00N 46°19' E 030°55'713.6
2018-Feb-05 16:30N 46°26' E 030°55'612.1
2018-Feb-05 16:00N 46°32' E 030°56'3110.4
2018-Feb-05 13:01N 46°36' E 031°41'1 9.9
2018-Feb-05 12:58N 46°36' E 031°42'25 6.2
2018-Feb-05 08:59N 46°56' E 032°01'0 0.0
2018-Feb-05 08:29N 46°56' E 032°01'0 0.0
2018-Feb-05 07:59N 46°56' E 032°01'0 0.0
2018-Feb-05 07:29N 46°56' E 032°01'0 0.0
2018-Feb-05 06:59N 46°56' E 032°01'0 0.0
2018-Feb-05 06:29N 46°56' E 032°01'0 0.0
2018-Feb-05 05:29N 46°56' E 032°01'0 0.0
2018-Feb-05 04:59N 46°56' E 032°01'0 0.0
2018-Feb-05 04:29N 46°56' E 032°01'0 0.0
2018-Feb-05 03:59N 46°56' E 032°01'0 0.0
2018-Feb-05 03:29N 46°56' E 032°01'0 0.0
2018-Feb-05 02:59N 46°56' E 032°01'0 0.0
2018-Feb-05 02:29N 46°56' E 032°01'0 0.0
2018-Feb-05 01:59N 46°56' E 032°01'0 0.0
2018-Feb-05 01:29N 46°56' E 032°01'0 0.0
2018-Feb-05 00:59N 46°56' E 032°01'0 0.0
2018-Feb-05 00:29N 46°56' E 032°01'0 0.0
2018-Feb-04 23:59N 46°56' E 032°01'0 0.0
2018-Feb-04 23:29N 46°56' E 032°01'0 0.0
2018-Feb-04 22:59N 46°56' E 032°01'0 0.0
2018-Feb-04 22:29N 46°56' E 032°01'0 0.0
2018-Feb-04 21:59N 46°56' E 032°01'0 0.0
2018-Feb-04 21:29N 46°56' E 032°01'0 0.0
2018-Feb-04 20:59N 46°56' E 032°01'0 0.0
2018-Feb-04 19:56N 46°56' E 032°01'0 0.0
2018-Feb-04 19:29N 46°56' E 032°01'0 0.0
2018-Feb-04 18:59N 46°56' E 032°01'0 0.0
2018-Feb-04 18:29N 46°56' E 032°01'0 0.0
2018-Feb-04 17:59N 46°56' E 032°01'0 0.0
2018-Feb-04 17:29N 46°56' E 032°01'0 0.0
2018-Feb-04 15:29N 46°56' E 032°01'0 0.0
2018-Feb-04 14:59N 46°56' E 032°01'0 0.0
2018-Feb-04 14:29N 46°56' E 032°01'0 0.0
2018-Feb-04 13:59N 46°56' E 032°01'0 0.0
2018-Feb-04 13:29N 46°56' E 032°01'0 0.0
2018-Feb-04 12:59N 46°56' E 032°01'0 0.0
2018-Feb-04 12:29N 46°56' E 032°01'0 0.0
2018-Feb-04 11:59N 46°56' E 032°01'0 0.0
2018-Feb-04 11:29N 46°56' E 032°01'0 0.0
2018-Feb-04 09:59N 46°56' E 032°01'0 0.0
2018-Feb-04 08:59N 46°56' E 032°01'0 0.0
2018-Feb-04 08:29N 46°56' E 032°01'0 0.0
2018-Feb-04 07:59N 46°56' E 032°01'0 0.0
2018-Feb-04 07:29N 46°56' E 032°01'0 0.0
2018-Feb-04 06:59N 46°56' E 032°01'0 0.0
2018-Feb-04 06:29N 46°56' E 032°01'0 0.0
2018-Feb-04 05:59N 46°56' E 032°01'0 0.0
2018-Feb-04 05:29N 46°56' E 032°01'0 0.0
2018-Feb-04 04:59N 46°56' E 032°01'0 0.0
2018-Feb-04 04:29N 46°56' E 032°01'0 0.0
2018-Feb-04 03:59N 46°56' E 032°01'0 0.0
2018-Feb-04 03:29N 46°56' E 032°01'0 0.0
2018-Feb-04 02:59N 46°56' E 032°01'0 0.0
2018-Feb-04 02:29N 46°56' E 032°01'0 0.0
2018-Feb-04 01:59N 46°56' E 032°01'0 0.0
2018-Feb-04 01:29N 46°56' E 032°01'0 0.0
2018-Feb-04 00:59N 46°56' E 032°01'0 0.0
2018-Feb-04 00:29N 46°56' E 032°01'0 0.0
2018-Feb-03 23:59N 46°56' E 032°01'0 0.0
2018-Feb-03 23:26N 46°56' E 032°01'0 0.0
2018-Feb-03 22:59N 46°56' E 032°01'0 0.0
2018-Feb-03 22:26N 46°56' E 032°01'0 0.0
2018-Feb-03 21:59N 46°56' E 032°01'0 0.0
2018-Feb-03 21:26N 46°56' E 032°01'0 0.0
2018-Feb-03 20:56N 46°56' E 032°01'0 0.0
2018-Feb-03 20:29N 46°56' E 032°01'0 0.0
2018-Feb-03 19:56N 46°56' E 032°01'1 0.7
2018-Feb-03 18:29N 46°57' E 031°60'0 0.0
2018-Feb-03 17:59N 46°57' E 031°60'0 0.0
2018-Feb-03 17:29N 46°57' E 031°60'0 0.0
2018-Feb-03 16:59N 46°57' E 031°60'0 0.0
2018-Feb-03 15:59N 46°57' E 031°60'0 0.0
2018-Feb-03 15:29N 46°57' E 031°60'0 0.0
2018-Feb-03 14:59N 46°57' E 031°60'0 0.0
2018-Feb-03 14:29N 46°57' E 031°60'0 0.0
2018-Feb-03 13:59N 46°57' E 031°60'0 0.0
2018-Feb-03 13:28N 46°57' E 031°60'0 0.0
2018-Feb-03 12:58N 46°57' E 031°60'0 0.0
2018-Feb-03 12:25N 46°57' E 031°60'0 0.0
2018-Feb-03 11:58N 46°57' E 031°60'0 0.0
2018-Feb-03 11:28N 46°57' E 031°60'0 0.0
2018-Feb-03 10:58N 46°57' E 031°60'0 0.0
2018-Feb-03 10:28N 46°57' E 031°60'0 0.0
2018-Feb-03 10:01N 46°57' E 031°60'0 0.0
2018-Feb-03 09:31N 46°57' E 031°60'0 0.0
2018-Feb-03 09:01N 46°57' E 031°60'0 0.0
2018-Feb-03 08:31N 46°57' E 031°60'0 0.0
2018-Feb-03 07:58N 46°57' E 031°60'0 0.0
2018-Feb-03 06:31N 46°57' E 031°60'0 0.0
2018-Feb-03 06:01N 46°57' E 031°60'0 0.0
2018-Feb-03 05:31N 46°57' E 031°60'0 0.0
2018-Feb-03 05:01N 46°57' E 031°60'0 0.0
2018-Feb-03 04:01N 46°57' E 031°60'0 0.0
2018-Feb-03 03:28N 46°57' E 031°60'0 0.0
2018-Feb-03 02:01N 46°57' E 031°60'0 0.0
2018-Feb-03 01:31N 46°57' E 031°60'0 0.0
2018-Feb-03 01:01N 46°57' E 031°60'0 0.0
2018-Feb-03 00:28N 46°57' E 031°60'0 0.0
2018-Feb-02 23:58N 46°57' E 031°60'0 0.0
2018-Feb-02 23:28N 46°57' E 031°60'0 0.0
2018-Feb-02 23:01N 46°57' E 031°60'0 0.0
2018-Feb-02 22:31N 46°57' E 031°60'0 0.0
2018-Feb-02 22:01N 46°57' E 031°60'0 0.0
2018-Feb-02 21:31N 46°57' E 031°60'0 0.0
2018-Feb-02 20:58N 46°57' E 031°60'0 0.0
2018-Feb-02 20:31N 46°57' E 031°60'0 0.0
2018-Feb-02 20:01N 46°57' E 031°60'0 0.0
2018-Feb-02 19:01N 46°57' E 031°60'0 0.0
2018-Feb-02 18:28N 46°57' E 031°60'0 0.0
2018-Feb-02 18:01N 46°57' E 031°60'0 0.0
2018-Feb-02 17:31N 46°57' E 031°60'0 0.0
2018-Feb-02 17:01N 46°57' E 031°60'0 0.0
2018-Feb-02 16:31N 46°57' E 031°60'0 0.0
2018-Feb-02 15:31N 46°57' E 031°60'0 0.0
2018-Feb-02 14:31N 46°57' E 031°60'0 0.0
2018-Feb-02 14:01N 46°57' E 031°60'0 0.0
2018-Feb-02 13:31N 46°57' E 031°60'0 0.0
2018-Feb-02 13:01N 46°57' E 031°60'0 0.0
2018-Feb-02 12:31N 46°57' E 031°60'0 0.0
2018-Feb-02 12:01N 46°57' E 031°60'0 0.0
2018-Feb-02 11:31N 46°57' E 031°60'0 0.0
2018-Feb-02 11:01N 46°57' E 031°60'0 0.0
2018-Feb-02 10:28N 46°57' E 031°60'0 0.0
2018-Feb-02 09:59N 46°57' E 031°60'0 0.0
2018-Feb-02 09:29N 46°57' E 031°60'0 0.0
2018-Feb-02 08:59N 46°57' E 031°60'0 0.0
2018-Feb-02 08:29N 46°57' E 031°60'0 0.0
2018-Feb-02 07:59N 46°57' E 031°60'0 0.0
2018-Feb-02 07:29N 46°57' E 031°60'0 0.0
2018-Feb-02 06:59N 46°57' E 031°60'0 0.0
2018-Feb-02 06:29N 46°57' E 031°60'0 0.0
2018-Feb-02 05:59N 46°57' E 031°60'0 0.0
2018-Feb-02 05:29N 46°57' E 031°60'0 0.0
2018-Feb-02 04:59N 46°57' E 031°60'0 0.0
2018-Feb-02 04:29N 46°57' E 031°60'0 0.0
2018-Feb-02 03:59N 46°57' E 031°60'0 0.0
2018-Feb-02 03:29N 46°57' E 031°60'0 0.0
2018-Feb-02 02:59N 46°57' E 031°60'0 0.0
2018-Feb-02 02:29N 46°57' E 031°60'0 0.0
2018-Feb-02 01:59N 46°57' E 031°60'0 0.0
2018-Feb-02 01:29N 46°57' E 031°60'0 0.0
2018-Feb-02 00:59N 46°57' E 031°60'0 0.0
2018-Feb-02 00:29N 46°57' E 031°60'0 0.0
2018-Feb-01 23:59N 46°57' E 031°60'0 0.0
2018-Feb-01 23:26N 46°57' E 031°60'0 0.0
2018-Feb-01 22:59N 46°57' E 031°60'0 0.0
2018-Feb-01 21:59N 46°57' E 031°60'0 0.0
2018-Feb-01 21:29N 46°57' E 031°60'0 0.0
2018-Feb-01 19:29N 46°57' E 031°60'0 0.0
2018-Feb-01 18:59N 46°57' E 031°60'0 0.0
2018-Feb-01 18:29N 46°57' E 031°60'0 0.0
2018-Feb-01 17:59N 46°57' E 031°60'0 0.0
2018-Feb-01 17:29N 46°57' E 031°60'0 0.0
2018-Feb-01 16:59N 46°57' E 031°60'0 0.0
2018-Feb-01 16:29N 46°57' E 031°60'0 0.0
2018-Feb-01 15:59N 46°57' E 031°60'0 0.0
2018-Feb-01 15:29N 46°57' E 031°60'0 0.0
2018-Feb-01 14:59N 46°57' E 031°60'0 0.0
2018-Feb-01 13:29N 46°57' E 031°60'0 0.0
2018-Feb-01 12:59N 46°57' E 031°60'0 0.0
2018-Feb-01 12:29N 46°57' E 031°60'0 0.0
2018-Feb-01 11:59N 46°57' E 031°60'0 0.0
2018-Feb-01 10:59N 46°57' E 031°60'0 0.0
2018-Feb-01 10:29N 46°57' E 031°60'0 0.0
2018-Feb-01 09:59N 46°57' E 031°60'0 0.0
2018-Feb-01 09:29N 46°57' E 031°60'0 0.0
2018-Feb-01 08:59N 46°57' E 031°60'0 0.0
2018-Feb-01 08:26N 46°57' E 031°60'0 0.0
2018-Feb-01 07:29N 46°57' E 031°60'0 0.0
2018-Feb-01 06:59N 46°57' E 031°60'0 0.0
2018-Feb-01 06:29N 46°57' E 031°60'0 0.0
2018-Feb-01 05:59N 46°57' E 031°60'0 0.0
2018-Feb-01 05:29N 46°57' E 031°60'0 0.0
2018-Feb-01 04:59N 46°57' E 031°60'0 0.0
2018-Feb-01 04:29N 46°57' E 031°60'0 0.4
2018-Feb-01 04:01N 46°57' E 032°00'1 0.6
2018-Feb-01 02:59N 46°56' E 032°01'0 0.0
2018-Feb-01 02:29N 46°56' E 032°01'0 0.0
2018-Feb-01 01:59N 46°56' E 032°01'0 0.0
2018-Feb-01 01:29N 46°56' E 032°01'0 0.0
2018-Feb-01 00:59N 46°56' E 032°01'0 0.1
2018-Feb-01 00:29N 46°56' E 032°01'0 0.1
2018-Jan-31 23:59N 46°56' E 032°01'0 0.1
2018-Jan-31 22:59N 46°56' E 032°01'0 0.1
2018-Jan-31 22:29N 46°56' E 032°01'7 4.9
2018-Jan-31 21:01N 46°50' E 031°56'510.9
2018-Jan-31 20:31N 46°45' E 031°54'611.2
2018-Jan-31 20:01N 46°39' E 031°56'612.3
2018-Jan-31 19:30N 46°36' E 031°48'612.7
2018-Jan-31 19:00N 46°36' E 031°39'611.4
2018-Jan-31 18:30N 46°35' E 031°31'612.0
2018-Jan-31 18:00N 46°35' E 031°22'715.3
2018-Jan-31 17:30N 46°35' E 031°11'510.2
2018-Jan-31 17:00N 46°34' E 031°04'3 5.3
2018-Jan-31 16:31N 46°35' E 031°07'713.1
2018-Jan-31 16:01N 46°33' E 030°58'714.7
2018-Jan-31 15:30N 46°25' E 030°57'815.1
2018-Jan-31 15:01N 46°18' E 030°57'714.6
2018-Jan-31 14:30N 46°12' E 031°04'  

Dump ship's entire track history